<?xml version="1.0" encoding="UTF-8" standalone="no" ?>
<gpx xmlns="http://www.topografix.com/GPX/1/1" xmlns:xsi="http://www.w3.org/2001/XMLSchema-instance" xsi:schemaLocation="http://www.topografix.com/GPX/1/1 http://www.topografix.com/GPX/1/1/gpx.xsd" version="1.1" creator="VisuGPX - https://www.visugpx.com">
  <metadata>
    <name>23km 1000Ladern sur lauquet-Molieres-Greifeil</name>
  </metadata>
  <trk>
    <name><![CDATA[23km 1000Ladern sur lauquet-Molieres-Greifeil]]></name>
    <trkseg>
      <trkpt lat="43.10747" lon="2.41945">
        <ele>319</ele>
        <time>2022-09-08T13:14:20Z</time>
      </trkpt>
      <trkpt lat="43.10735" lon="2.41926">
        <ele>320</ele>
        <time>2022-09-08T13:14:29Z</time>
      </trkpt>
      <trkpt lat="43.10727" lon="2.41929">
        <ele>321</ele>
        <time>2022-09-08T13:14:33Z</time>
      </trkpt>
      <trkpt lat="43.10727" lon="2.41961">
        <ele>321</ele>
        <time>2022-09-08T13:14:45Z</time>
      </trkpt>
      <trkpt lat="43.10716" lon="2.41996">
        <ele>322</ele>
        <time>2022-09-08T13:14:59Z</time>
      </trkpt>
      <trkpt lat="43.10692" lon="2.42028">
        <ele>327</ele>
        <time>2022-09-08T13:15:16Z</time>
      </trkpt>
      <trkpt lat="43.10668" lon="2.42054">
        <ele>331</ele>
        <time>2022-09-08T13:15:31Z</time>
      </trkpt>
      <trkpt lat="43.10641" lon="2.42103">
        <ele>337</ele>
        <time>2022-09-08T13:15:53Z</time>
      </trkpt>
      <trkpt lat="43.10595" lon="2.4212">
        <ele>337</ele>
        <time>2022-09-08T13:16:17Z</time>
      </trkpt>
      <trkpt lat="43.10556" lon="2.42127">
        <ele>337</ele>
        <time>2022-09-08T13:16:37Z</time>
      </trkpt>
      <trkpt lat="43.10536" lon="2.42142">
        <ele>338</ele>
        <time>2022-09-08T13:16:48Z</time>
      </trkpt>
      <trkpt lat="43.10473" lon="2.4215">
        <ele>338</ele>
        <time>2022-09-08T13:17:20Z</time>
      </trkpt>
      <trkpt lat="43.10401" lon="2.42208">
        <ele>344</ele>
        <time>2022-09-08T13:18:02Z</time>
      </trkpt>
      <trkpt lat="43.10373" lon="2.42203">
        <ele>346</ele>
        <time>2022-09-08T13:18:16Z</time>
      </trkpt>
      <trkpt lat="43.10334" lon="2.42226">
        <ele>348</ele>
        <time>2022-09-08T13:18:37Z</time>
      </trkpt>
      <trkpt lat="43.10301" lon="2.42289">
        <ele>354</ele>
        <time>2022-09-08T13:19:06Z</time>
      </trkpt>
      <trkpt lat="43.10259" lon="2.42348">
        <ele>353</ele>
        <time>2022-09-08T13:19:36Z</time>
      </trkpt>
      <trkpt lat="43.10232" lon="2.42345">
        <ele>357</ele>
        <time>2022-09-08T13:19:49Z</time>
      </trkpt>
      <trkpt lat="43.10216" lon="2.42316">
        <ele>361</ele>
        <time>2022-09-08T13:20:02Z</time>
      </trkpt>
      <trkpt lat="43.10173" lon="2.42275">
        <ele>369</ele>
        <time>2022-09-08T13:20:29Z</time>
      </trkpt>
      <trkpt lat="43.10124" lon="2.42211">
        <ele>381</ele>
        <time>2022-09-08T13:21:03Z</time>
      </trkpt>
      <trkpt lat="43.1009" lon="2.42215">
        <ele>386</ele>
        <time>2022-09-08T13:21:20Z</time>
      </trkpt>
      <trkpt lat="43.1006" lon="2.42174">
        <ele>387</ele>
        <time>2022-09-08T13:21:41Z</time>
      </trkpt>
      <trkpt lat="43.10013" lon="2.42155">
        <ele>395</ele>
        <time>2022-09-08T13:22:05Z</time>
      </trkpt>
      <trkpt lat="43.09911" lon="2.42191">
        <ele>407</ele>
        <time>2022-09-08T13:22:58Z</time>
      </trkpt>
      <trkpt lat="43.09857" lon="2.42213">
        <ele>418</ele>
        <time>2022-09-08T13:23:26Z</time>
      </trkpt>
      <trkpt lat="43.09838" lon="2.42197">
        <ele>421</ele>
        <time>2022-09-08T13:23:37Z</time>
      </trkpt>
      <trkpt lat="43.09775" lon="2.42167">
        <ele>429</ele>
        <time>2022-09-08T13:24:11Z</time>
      </trkpt>
      <trkpt lat="43.09729" lon="2.42226">
        <ele>438</ele>
        <time>2022-09-08T13:24:42Z</time>
      </trkpt>
      <trkpt lat="43.09711" lon="2.42331">
        <ele>450</ele>
        <time>2022-09-08T13:25:22Z</time>
      </trkpt>
      <trkpt lat="43.09713" lon="2.42377">
        <ele>453</ele>
        <time>2022-09-08T13:25:39Z</time>
      </trkpt>
      <trkpt lat="43.09763" lon="2.42506">
        <ele>458</ele>
        <time>2022-09-08T13:26:32Z</time>
      </trkpt>
      <trkpt lat="43.09748" lon="2.42573">
        <ele>463</ele>
        <time>2022-09-08T13:26:58Z</time>
      </trkpt>
      <trkpt lat="43.09728" lon="2.42595">
        <ele>465</ele>
        <time>2022-09-08T13:27:10Z</time>
      </trkpt>
      <trkpt lat="43.09671" lon="2.42569">
        <ele>478</ele>
        <time>2022-09-08T13:27:41Z</time>
      </trkpt>
      <trkpt lat="43.09635" lon="2.42598">
        <ele>486</ele>
        <time>2022-09-08T13:28:01Z</time>
      </trkpt>
      <trkpt lat="43.09616" lon="2.4262">
        <ele>487</ele>
        <time>2022-09-08T13:28:14Z</time>
      </trkpt>
      <trkpt lat="43.09564" lon="2.4263">
        <ele>499</ele>
        <time>2022-09-08T13:28:40Z</time>
      </trkpt>
      <trkpt lat="43.09521" lon="2.42644">
        <ele>509</ele>
        <time>2022-09-08T13:29:02Z</time>
      </trkpt>
      <trkpt lat="43.09506" lon="2.42677">
        <ele>507</ele>
        <time>2022-09-08T13:29:16Z</time>
      </trkpt>
      <trkpt lat="43.09454" lon="2.42707">
        <ele>519</ele>
        <time>2022-09-08T13:29:45Z</time>
      </trkpt>
      <trkpt lat="43.09445" lon="2.42727">
        <ele>518</ele>
        <time>2022-09-08T13:29:53Z</time>
      </trkpt>
      <trkpt lat="43.09417" lon="2.42712">
        <ele>530</ele>
        <time>2022-09-08T13:30:08Z</time>
      </trkpt>
      <trkpt lat="43.09395" lon="2.42721">
        <ele>535</ele>
        <time>2022-09-08T13:30:20Z</time>
      </trkpt>
      <trkpt lat="43.09302" lon="2.42791">
        <ele>552</ele>
        <time>2022-09-08T13:31:13Z</time>
      </trkpt>
      <trkpt lat="43.09285" lon="2.4281">
        <ele>555</ele>
        <time>2022-09-08T13:31:24Z</time>
      </trkpt>
      <trkpt lat="43.09283" lon="2.42824">
        <ele>554</ele>
        <time>2022-09-08T13:31:29Z</time>
      </trkpt>
      <trkpt lat="43.09245" lon="2.42856">
        <ele>564</ele>
        <time>2022-09-08T13:31:51Z</time>
      </trkpt>
      <trkpt lat="43.09209" lon="2.42949">
        <ele>573</ele>
        <time>2022-09-08T13:32:30Z</time>
      </trkpt>
      <trkpt lat="43.09183" lon="2.43037">
        <ele>578</ele>
        <time>2022-09-08T13:33:05Z</time>
      </trkpt>
      <trkpt lat="43.09164" lon="2.43022">
        <ele>581</ele>
        <time>2022-09-08T13:33:16Z</time>
      </trkpt>
      <trkpt lat="43.09154" lon="2.42974">
        <ele>580</ele>
        <time>2022-09-08T13:33:34Z</time>
      </trkpt>
      <trkpt lat="43.09135" lon="2.4293">
        <ele>576</ele>
        <time>2022-09-08T13:33:53Z</time>
      </trkpt>
      <trkpt lat="43.09122" lon="2.42911">
        <ele>572</ele>
        <time>2022-09-08T13:34:02Z</time>
      </trkpt>
      <trkpt lat="43.09125" lon="2.42889">
        <ele>572</ele>
        <time>2022-09-08T13:34:10Z</time>
      </trkpt>
      <trkpt lat="43.09117" lon="2.42798">
        <ele>561</ele>
        <time>2022-09-08T13:34:44Z</time>
      </trkpt>
      <trkpt lat="43.09043" lon="2.42599">
        <ele>531</ele>
        <time>2022-09-08T13:36:05Z</time>
      </trkpt>
      <trkpt lat="43.0899" lon="2.42512">
        <ele>539</ele>
        <time>2022-09-08T13:36:47Z</time>
      </trkpt>
      <trkpt lat="43.08929" lon="2.4242">
        <ele>542</ele>
        <time>2022-09-08T13:37:32Z</time>
      </trkpt>
      <trkpt lat="43.08874" lon="2.4225">
        <ele>539</ele>
        <time>2022-09-08T13:38:40Z</time>
      </trkpt>
      <trkpt lat="43.08821" lon="2.42157">
        <ele>538</ele>
        <time>2022-09-08T13:39:23Z</time>
      </trkpt>
      <trkpt lat="43.08767" lon="2.41996">
        <ele>539</ele>
        <time>2022-09-08T13:40:28Z</time>
      </trkpt>
      <trkpt lat="43.08725" lon="2.41927">
        <ele>536</ele>
        <time>2022-09-08T13:41:01Z</time>
      </trkpt>
      <trkpt lat="43.08695" lon="2.41833">
        <ele>541</ele>
        <time>2022-09-08T13:41:38Z</time>
      </trkpt>
      <trkpt lat="43.08689" lon="2.41822">
        <ele>543</ele>
        <time>2022-09-08T13:41:43Z</time>
      </trkpt>
      <trkpt lat="43.08664" lon="2.41794">
        <ele>548</ele>
        <time>2022-09-08T13:41:59Z</time>
      </trkpt>
      <trkpt lat="43.08631" lon="2.41717">
        <ele>553</ele>
        <time>2022-09-08T13:42:32Z</time>
      </trkpt>
      <trkpt lat="43.08588" lon="2.41627">
        <ele>562</ele>
        <time>2022-09-08T13:43:11Z</time>
      </trkpt>
      <trkpt lat="43.08576" lon="2.41578">
        <ele>569</ele>
        <time>2022-09-08T13:43:30Z</time>
      </trkpt>
      <trkpt lat="43.0851" lon="2.41479">
        <ele>593</ele>
        <time>2022-09-08T13:44:19Z</time>
      </trkpt>
      <trkpt lat="43.08485" lon="2.41374">
        <ele>602</ele>
        <time>2022-09-08T13:45:00Z</time>
      </trkpt>
      <trkpt lat="43.08485" lon="2.41367">
        <ele>602</ele>
        <time>2022-09-08T13:45:02Z</time>
      </trkpt>
      <trkpt lat="43.08475" lon="2.41339">
        <ele>603</ele>
        <time>2022-09-08T13:45:14Z</time>
      </trkpt>
      <trkpt lat="43.08452" lon="2.413">
        <ele>600</ele>
        <time>2022-09-08T13:45:32Z</time>
      </trkpt>
      <trkpt lat="43.08408" lon="2.41244">
        <ele>591</ele>
        <time>2022-09-08T13:46:02Z</time>
      </trkpt>
      <trkpt lat="43.08388" lon="2.41178">
        <ele>586</ele>
        <time>2022-09-08T13:46:28Z</time>
      </trkpt>
      <trkpt lat="43.08362" lon="2.41156">
        <ele>584</ele>
        <time>2022-09-08T13:46:43Z</time>
      </trkpt>
      <trkpt lat="43.08355" lon="2.41097">
        <ele>588</ele>
        <time>2022-09-08T13:47:05Z</time>
      </trkpt>
      <trkpt lat="43.0832" lon="2.41026">
        <ele>598</ele>
        <time>2022-09-08T13:47:37Z</time>
      </trkpt>
      <trkpt lat="43.08296" lon="2.40995">
        <ele>603</ele>
        <time>2022-09-08T13:47:53Z</time>
      </trkpt>
      <trkpt lat="43.08302" lon="2.40862">
        <ele>615</ele>
        <time>2022-09-08T13:48:42Z</time>
      </trkpt>
      <trkpt lat="43.08284" lon="2.40825">
        <ele>617</ele>
        <time>2022-09-08T13:48:58Z</time>
      </trkpt>
      <trkpt lat="43.0831" lon="2.40765">
        <ele>622</ele>
        <time>2022-09-08T13:49:23Z</time>
      </trkpt>
      <trkpt lat="43.08325" lon="2.40703">
        <ele>628</ele>
        <time>2022-09-08T13:49:47Z</time>
      </trkpt>
      <trkpt lat="43.08325" lon="2.40689">
        <ele>629</ele>
        <time>2022-09-08T13:49:52Z</time>
      </trkpt>
      <trkpt lat="43.08314" lon="2.40638">
        <ele>626</ele>
        <time>2022-09-08T13:50:12Z</time>
      </trkpt>
      <trkpt lat="43.08334" lon="2.40619">
        <ele>630</ele>
        <time>2022-09-08T13:50:24Z</time>
      </trkpt>
      <trkpt lat="43.08349" lon="2.40573">
        <ele>623</ele>
        <time>2022-09-08T13:50:42Z</time>
      </trkpt>
      <trkpt lat="43.08357" lon="2.4052">
        <ele>616</ele>
        <time>2022-09-08T13:51:02Z</time>
      </trkpt>
      <trkpt lat="43.08318" lon="2.40378">
        <ele>611</ele>
        <time>2022-09-08T13:51:58Z</time>
      </trkpt>
      <trkpt lat="43.08358" lon="2.40295">
        <ele>612</ele>
        <time>2022-09-08T13:52:34Z</time>
      </trkpt>
      <trkpt lat="43.08361" lon="2.40263">
        <ele>613</ele>
        <time>2022-09-08T13:52:46Z</time>
      </trkpt>
      <trkpt lat="43.08513" lon="2.40083">
        <ele>584</ele>
        <time>2022-09-08T13:54:26Z</time>
      </trkpt>
      <trkpt lat="43.08616" lon="2.3998">
        <ele>569</ele>
        <time>2022-09-08T13:55:30Z</time>
      </trkpt>
      <trkpt lat="43.08709" lon="2.39988">
        <ele>557</ele>
        <time>2022-09-08T13:56:17Z</time>
      </trkpt>
      <trkpt lat="43.08742" lon="2.39967">
        <ele>549</ele>
        <time>2022-09-08T13:56:35Z</time>
      </trkpt>
      <trkpt lat="43.08787" lon="2.3996">
        <ele>538</ele>
        <time>2022-09-08T13:56:58Z</time>
      </trkpt>
      <trkpt lat="43.08844" lon="2.39898">
        <ele>516</ele>
        <time>2022-09-08T13:57:34Z</time>
      </trkpt>
      <trkpt lat="43.08956" lon="2.39657">
        <ele>448</ele>
        <time>2022-09-08T13:59:19Z</time>
      </trkpt>
      <trkpt lat="43.09035" lon="2.39634">
        <ele>432</ele>
        <time>2022-09-08T13:59:59Z</time>
      </trkpt>
      <trkpt lat="43.09098" lon="2.39549">
        <ele>410</ele>
        <time>2022-09-08T14:00:43Z</time>
      </trkpt>
      <trkpt lat="43.0911" lon="2.3948">
        <ele>397</ele>
        <time>2022-09-08T14:01:09Z</time>
      </trkpt>
      <trkpt lat="43.09066" lon="2.39323">
        <ele>376</ele>
        <time>2022-09-08T14:02:11Z</time>
      </trkpt>
      <trkpt lat="43.09038" lon="2.39239">
        <ele>362</ele>
        <time>2022-09-08T14:02:44Z</time>
      </trkpt>
      <trkpt lat="43.09051" lon="2.39134">
        <ele>352</ele>
        <time>2022-09-08T14:03:23Z</time>
      </trkpt>
      <trkpt lat="43.09079" lon="2.39057">
        <ele>345</ele>
        <time>2022-09-08T14:03:55Z</time>
      </trkpt>
      <trkpt lat="43.09089" lon="2.39041">
        <ele>345</ele>
        <time>2022-09-08T14:04:02Z</time>
      </trkpt>
      <trkpt lat="43.09095" lon="2.38947">
        <ele>339</ele>
        <time>2022-09-08T14:04:37Z</time>
      </trkpt>
      <trkpt lat="43.09088" lon="2.38906">
        <ele>336</ele>
        <time>2022-09-08T14:04:52Z</time>
      </trkpt>
      <trkpt lat="43.09062" lon="2.38891">
        <ele>338</ele>
        <time>2022-09-08T14:05:06Z</time>
      </trkpt>
      <trkpt lat="43.09051" lon="2.38872">
        <ele>338</ele>
        <time>2022-09-08T14:05:15Z</time>
      </trkpt>
      <trkpt lat="43.09042" lon="2.38827">
        <ele>334</ele>
        <time>2022-09-08T14:05:32Z</time>
      </trkpt>
      <trkpt lat="43.0901" lon="2.38783">
        <ele>332</ele>
        <time>2022-09-08T14:05:55Z</time>
      </trkpt>
      <trkpt lat="43.08931" lon="2.3881">
        <ele>350</ele>
        <time>2022-09-08T14:06:36Z</time>
      </trkpt>
      <trkpt lat="43.08904" lon="2.38765">
        <ele>346</ele>
        <time>2022-09-08T14:06:57Z</time>
      </trkpt>
      <trkpt lat="43.08838" lon="2.38768">
        <ele>356</ele>
        <time>2022-09-08T14:07:30Z</time>
      </trkpt>
      <trkpt lat="43.08728" lon="2.38842">
        <ele>375</ele>
        <time>2022-09-08T14:08:31Z</time>
      </trkpt>
      <trkpt lat="43.08639" lon="2.38699">
        <ele>394</ele>
        <time>2022-09-08T14:09:40Z</time>
      </trkpt>
      <trkpt lat="43.08642" lon="2.38622">
        <ele>401</ele>
        <time>2022-09-08T14:10:08Z</time>
      </trkpt>
      <trkpt lat="43.08606" lon="2.38612">
        <ele>401.6484375</ele>
      </trkpt>
      <trkpt lat="43.08605" lon="2.38608">
        <ele>401.2421875</ele>
      </trkpt>
      <trkpt lat="43.08602" lon="2.38596">
        <ele>399.76953125</ele>
      </trkpt>
      <trkpt lat="43.08601" lon="2.38583">
        <ele>398.2890625</ele>
      </trkpt>
      <trkpt lat="43.086" lon="2.38571">
        <ele>396.22265625</ele>
      </trkpt>
      <trkpt lat="43.08599" lon="2.38558">
        <ele>393.83203125</ele>
      </trkpt>
      <trkpt lat="43.08597" lon="2.38546">
        <ele>391.4296875</ele>
      </trkpt>
      <trkpt lat="43.08595" lon="2.38533">
        <ele>389.4453125</ele>
      </trkpt>
      <trkpt lat="43.08587" lon="2.38527">
        <ele>389.5859375</ele>
      </trkpt>
      <trkpt lat="43.08581" lon="2.38537">
        <ele>392.1484375</ele>
      </trkpt>
      <trkpt lat="43.08575" lon="2.38548">
        <ele>394.62109375</ele>
      </trkpt>
      <trkpt lat="43.08567" lon="2.38557">
        <ele>396.8828125</ele>
      </trkpt>
      <trkpt lat="43.08558" lon="2.38561">
        <ele>398.41015625</ele>
      </trkpt>
      <trkpt lat="43.08555" lon="2.38548">
        <ele>397.24609375</ele>
      </trkpt>
      <trkpt lat="43.0856" lon="2.38538">
        <ele>395.23828125</ele>
      </trkpt>
      <trkpt lat="43.08565" lon="2.38527">
        <ele>393.05859375</ele>
      </trkpt>
      <trkpt lat="43.08569" lon="2.38516">
        <ele>390.546875</ele>
      </trkpt>
      <trkpt lat="43.08573" lon="2.38503">
        <ele>387.71484375</ele>
      </trkpt>
      <trkpt lat="43.08578" lon="2.38492">
        <ele>384.81640625</ele>
      </trkpt>
      <trkpt lat="43.08582" lon="2.3848">
        <ele>381.984375</ele>
      </trkpt>
      <trkpt lat="43.08583" lon="2.38467">
        <ele>379.58984375</ele>
      </trkpt>
      <trkpt lat="43.08583" lon="2.38453">
        <ele>376.6171875</ele>
      </trkpt>
      <trkpt lat="43.08583" lon="2.38441">
        <ele>373.703125</ele>
      </trkpt>
      <trkpt lat="43.08583" lon="2.38428">
        <ele>370.94140625</ele>
      </trkpt>
      <trkpt lat="43.08576" lon="2.3842">
        <ele>370.49609375</ele>
      </trkpt>
      <trkpt lat="43.08567" lon="2.38415">
        <ele>371.33203125</ele>
      </trkpt>
      <trkpt lat="43.08558" lon="2.3841">
        <ele>372.2890625</ele>
      </trkpt>
      <trkpt lat="43.0855" lon="2.38389">
        <ele>371.625</ele>
      </trkpt>
      <trkpt lat="43.08545" lon="2.38379">
        <ele>371.8125</ele>
      </trkpt>
      <trkpt lat="43.08539" lon="2.38369">
        <ele>372.10546875</ele>
      </trkpt>
      <trkpt lat="43.08533" lon="2.38359">
        <ele>372.61328125</ele>
      </trkpt>
      <trkpt lat="43.0853" lon="2.38347">
        <ele>372.36328125</ele>
      </trkpt>
      <trkpt lat="43.08535" lon="2.38336">
        <ele>370.76171875</ele>
      </trkpt>
      <trkpt lat="43.08539" lon="2.38323">
        <ele>369.45703125</ele>
      </trkpt>
      <trkpt lat="43.08541" lon="2.38311">
        <ele>368.4609375</ele>
      </trkpt>
      <trkpt lat="43.08545" lon="2.38298">
        <ele>366.828125</ele>
      </trkpt>
      <trkpt lat="43.08548" lon="2.38286">
        <ele>364.6015625</ele>
      </trkpt>
      <trkpt lat="43.08551" lon="2.38271">
        <ele>362.4921875</ele>
      </trkpt>
      <trkpt lat="43.08555" lon="2.38258">
        <ele>360.37890625</ele>
      </trkpt>
      <trkpt lat="43.08557" lon="2.38246">
        <ele>358.83984375</ele>
      </trkpt>
      <trkpt lat="43.08558" lon="2.38233">
        <ele>356.87890625</ele>
      </trkpt>
      <trkpt lat="43.08558" lon="2.3822">
        <ele>355.19921875</ele>
      </trkpt>
      <trkpt lat="43.08558" lon="2.38207">
        <ele>353.671875</ele>
      </trkpt>
      <trkpt lat="43.08558" lon="2.38193">
        <ele>351.9921875</ele>
      </trkpt>
      <trkpt lat="43.08558" lon="2.38181">
        <ele>350.14453125</ele>
      </trkpt>
      <trkpt lat="43.08561" lon="2.38168">
        <ele>347.59765625</ele>
      </trkpt>
      <trkpt lat="43.08564" lon="2.38156">
        <ele>345.18359375</ele>
      </trkpt>
      <trkpt lat="43.08566" lon="2.38143">
        <ele>342.90234375</ele>
      </trkpt>
      <trkpt lat="43.08567" lon="2.38131">
        <ele>340.83984375</ele>
      </trkpt>
      <trkpt lat="43.08567" lon="2.38117">
        <ele>338.0625</ele>
      </trkpt>
      <trkpt lat="43.08567" lon="2.38105">
        <ele>335.5390625</ele>
      </trkpt>
      <trkpt lat="43.08567" lon="2.38091">
        <ele>332.765625</ele>
      </trkpt>
      <trkpt lat="43.08566" lon="2.38078">
        <ele>330.24609375</ele>
      </trkpt>
      <trkpt lat="43.08558" lon="2.3807">
        <ele>328.125</ele>
      </trkpt>
      <trkpt lat="43.08548" lon="2.3807">
        <ele>328.03125</ele>
      </trkpt>
      <trkpt lat="43.08539" lon="2.38072">
        <ele>328.640625</ele>
      </trkpt>
      <trkpt lat="43.0853" lon="2.38075">
        <ele>329.3203125</ele>
      </trkpt>
      <trkpt lat="43.08521" lon="2.38076">
        <ele>329.65625</ele>
      </trkpt>
      <trkpt lat="43.08512" lon="2.38077">
        <ele>329.98828125</ele>
      </trkpt>
      <trkpt lat="43.08503" lon="2.38077">
        <ele>329.98828125</ele>
      </trkpt>
      <trkpt lat="43.08499" lon="2.38065">
        <ele>326.78515625</ele>
      </trkpt>
      <trkpt lat="43.08495" lon="2.38053">
        <ele>323.9375</ele>
      </trkpt>
      <trkpt lat="43.08486" lon="2.38046">
        <ele>322.109375</ele>
      </trkpt>
      <trkpt lat="43.08476" lon="2.38046">
        <ele>321.47265625</ele>
      </trkpt>
      <trkpt lat="43.08466" lon="2.38046">
        <ele>320.86328125</ele>
      </trkpt>
      <trkpt lat="43.08457" lon="2.38043">
        <ele>319.69921875</ele>
      </trkpt>
      <trkpt lat="43.08448" lon="2.38038">
        <ele>317.953125</ele>
      </trkpt>
      <trkpt lat="43.08447" lon="2.38038">
        <ele>317.8984375</ele>
      </trkpt>
      <trkpt lat="43.08447" lon="2.38038">
        <ele>317.8984375</ele>
      </trkpt>
      <trkpt lat="43.08438" lon="2.38038">
        <ele>317.3671875</ele>
      </trkpt>
      <trkpt lat="43.08429" lon="2.3804">
        <ele>316.8984375</ele>
      </trkpt>
      <trkpt lat="43.0842" lon="2.38041">
        <ele>315.296875</ele>
      </trkpt>
      <trkpt lat="43.0841" lon="2.38041">
        <ele>313.21484375</ele>
      </trkpt>
      <trkpt lat="43.08404" lon="2.3804">
        <ele>311.62109375</ele>
      </trkpt>
      <trkpt lat="43.08404" lon="2.3804">
        <ele>311.62109375</ele>
      </trkpt>
      <trkpt lat="43.08404" lon="2.3804">
        <ele>311.62109375</ele>
      </trkpt>
      <trkpt lat="43.08395" lon="2.38038">
        <ele>309.47265625</ele>
      </trkpt>
      <trkpt lat="43.08387" lon="2.38032">
        <ele>306.49609375</ele>
      </trkpt>
      <trkpt lat="43.08378" lon="2.38036">
        <ele>305.40625</ele>
      </trkpt>
      <trkpt lat="43.08371" lon="2.38045">
        <ele>306.15625</ele>
      </trkpt>
      <trkpt lat="43.08365" lon="2.38055">
        <ele>307.484375</ele>
      </trkpt>
      <trkpt lat="43.08356" lon="2.38057">
        <ele>306.9375</ele>
      </trkpt>
      <trkpt lat="43.08355" lon="2.38045">
        <ele>304.76171875</ele>
      </trkpt>
      <trkpt lat="43.08361" lon="2.38033">
        <ele>303.28515625</ele>
      </trkpt>
      <trkpt lat="43.08366" lon="2.38022">
        <ele>301.61328125</ele>
      </trkpt>
      <trkpt lat="43.08371" lon="2.38011">
        <ele>299.7109375</ele>
      </trkpt>
      <trkpt lat="43.08362" lon="2.38011">
        <ele>299.3828125</ele>
      </trkpt>
      <trkpt lat="43.08353" lon="2.38015">
        <ele>299.66015625</ele>
      </trkpt>
      <trkpt lat="43.08346" lon="2.3802">
        <ele>300.1484375</ele>
      </trkpt>
      <trkpt lat="43.0834" lon="2.38026">
        <ele>300.71484375</ele>
      </trkpt>
      <trkpt lat="43.08332" lon="2.38032">
        <ele>301.0234375</ele>
      </trkpt>
      <trkpt lat="43.08326" lon="2.38035">
        <ele>300.87109375</ele>
      </trkpt>
      <trkpt lat="43.08317" lon="2.38033">
        <ele>300.359375</ele>
      </trkpt>
      <trkpt lat="43.08308" lon="2.38027">
        <ele>299.99609375</ele>
      </trkpt>
      <trkpt lat="43.08299" lon="2.38005">
        <ele>298.265625</ele>
      </trkpt>
      <trkpt lat="43.08291" lon="2.37995">
        <ele>297.890625</ele>
      </trkpt>
      <trkpt lat="43.08283" lon="2.37987">
        <ele>297.8515625</ele>
      </trkpt>
      <trkpt lat="43.08274" lon="2.37981">
        <ele>298.01171875</ele>
      </trkpt>
      <trkpt lat="43.08266" lon="2.37975">
        <ele>298.26953125</ele>
      </trkpt>
      <trkpt lat="43.08258" lon="2.37967">
        <ele>297.96484375</ele>
      </trkpt>
      <trkpt lat="43.08251" lon="2.37959">
        <ele>296.87890625</ele>
      </trkpt>
      <trkpt lat="43.08244" lon="2.3795">
        <ele>295.79296875</ele>
      </trkpt>
      <trkpt lat="43.08238" lon="2.37939">
        <ele>294.5234375</ele>
      </trkpt>
      <trkpt lat="43.0823" lon="2.3793">
        <ele>293.609375</ele>
      </trkpt>
      <trkpt lat="43.08221" lon="2.37927">
        <ele>293.4140625</ele>
      </trkpt>
      <trkpt lat="43.08212" lon="2.37927">
        <ele>293.4765625</ele>
      </trkpt>
      <trkpt lat="43.08203" lon="2.37927">
        <ele>293.96484375</ele>
      </trkpt>
      <trkpt lat="43.08193" lon="2.37927">
        <ele>294.75</ele>
      </trkpt>
      <trkpt lat="43.08183" lon="2.37927">
        <ele>295.53125</ele>
      </trkpt>
      <trkpt lat="43.08179" lon="2.37915">
        <ele>294.9296875</ele>
      </trkpt>
      <trkpt lat="43.08179" lon="2.37902">
        <ele>293.8125</ele>
      </trkpt>
      <trkpt lat="43.08178" lon="2.3789">
        <ele>292.66796875</ele>
      </trkpt>
      <trkpt lat="43.08175" lon="2.37877">
        <ele>291.80078125</ele>
      </trkpt>
      <trkpt lat="43.08169" lon="2.37866">
        <ele>291.2734375</ele>
      </trkpt>
      <trkpt lat="43.08162" lon="2.37857">
        <ele>291.2109375</ele>
      </trkpt>
      <trkpt lat="43.08155" lon="2.37849">
        <ele>290.96875</ele>
      </trkpt>
      <trkpt lat="43.08149" lon="2.37839">
        <ele>290.0546875</ele>
      </trkpt>
      <trkpt lat="43.08141" lon="2.37831">
        <ele>289.30078125</ele>
      </trkpt>
      <trkpt lat="43.08136" lon="2.37821">
        <ele>288.140625</ele>
      </trkpt>
      <trkpt lat="43.08129" lon="2.37812">
        <ele>287.1484375</ele>
      </trkpt>
      <trkpt lat="43.08118" lon="2.37792">
        <ele>284.59765625</ele>
      </trkpt>
      <trkpt lat="43.08111" lon="2.3778">
        <ele>283.16015625</ele>
      </trkpt>
      <trkpt lat="43.08103" lon="2.37772">
        <ele>281.98046875</ele>
      </trkpt>
      <trkpt lat="43.08094" lon="2.37767">
        <ele>281.13671875</ele>
      </trkpt>
      <trkpt lat="43.08084" lon="2.37767">
        <ele>280.74609375</ele>
      </trkpt>
      <trkpt lat="43.08074" lon="2.37767">
        <ele>280.359375</ele>
      </trkpt>
      <trkpt lat="43.08065" lon="2.37768">
        <ele>280.2109375</ele>
      </trkpt>
      <trkpt lat="43.08056" lon="2.3777">
        <ele>280.29296875</ele>
      </trkpt>
      <trkpt lat="43.08047" lon="2.37775">
        <ele>280.8125</ele>
      </trkpt>
      <trkpt lat="43.08038" lon="2.37778">
        <ele>280.87109375</ele>
      </trkpt>
      <trkpt lat="43.08029" lon="2.37783">
        <ele>281.2890625</ele>
      </trkpt>
      <trkpt lat="43.08021" lon="2.37789">
        <ele>281.9765625</ele>
      </trkpt>
      <trkpt lat="43.08012" lon="2.37793">
        <ele>282.1640625</ele>
      </trkpt>
      <trkpt lat="43.08003" lon="2.37794">
        <ele>281.90625</ele>
      </trkpt>
      <trkpt lat="43.08001" lon="2.37794">
        <ele>281.80859375</ele>
      </trkpt>
      <trkpt lat="43.07991" lon="2.37794">
        <ele>281.2734375</ele>
      </trkpt>
      <trkpt lat="43.07981" lon="2.37794">
        <ele>280.390625</ele>
      </trkpt>
      <trkpt lat="43.07971" lon="2.37794">
        <ele>279.1953125</ele>
      </trkpt>
      <trkpt lat="43.07961" lon="2.37794">
        <ele>278.00390625</ele>
      </trkpt>
      <trkpt lat="43.07952" lon="2.37794">
        <ele>276.91796875</ele>
      </trkpt>
      <trkpt lat="43.07943" lon="2.37794">
        <ele>275.83203125</ele>
      </trkpt>
      <trkpt lat="43.07933" lon="2.37789">
        <ele>273.9921875</ele>
      </trkpt>
      <trkpt lat="43.07925" lon="2.37782">
        <ele>272.4140625</ele>
      </trkpt>
      <trkpt lat="43.07917" lon="2.37775">
        <ele>271.19140625</ele>
      </trkpt>
      <trkpt lat="43.07911" lon="2.37765">
        <ele>269.70703125</ele>
      </trkpt>
      <trkpt lat="43.07904" lon="2.37757">
        <ele>268.3984375</ele>
      </trkpt>
      <trkpt lat="43.07895" lon="2.37752">
        <ele>267.48828125</ele>
      </trkpt>
      <trkpt lat="43.07884" lon="2.37742">
        <ele>266.125</ele>
      </trkpt>
      <trkpt lat="43.07877" lon="2.37733">
        <ele>265.23828125</ele>
      </trkpt>
      <trkpt lat="43.07868" lon="2.37733">
        <ele>264.796875</ele>
      </trkpt>
      <trkpt lat="43.07865" lon="2.37745">
        <ele>265.57421875</ele>
      </trkpt>
      <trkpt lat="43.07858" lon="2.37754">
        <ele>265.91796875</ele>
      </trkpt>
      <trkpt lat="43.0785" lon="2.37762">
        <ele>266.0703125</ele>
      </trkpt>
      <trkpt lat="43.07843" lon="2.37769">
        <ele>266.23828125</ele>
      </trkpt>
      <trkpt lat="43.07835" lon="2.37777">
        <ele>266.30859375</ele>
      </trkpt>
      <trkpt lat="43.07826" lon="2.37773">
        <ele>265.453125</ele>
      </trkpt>
      <trkpt lat="43.07806" lon="2.37765">
        <ele>270</ele>
        <time>2022-09-08T14:56:53Z</time>
      </trkpt>
      <trkpt lat="43.0779" lon="2.37686">
        <ele>261</ele>
        <time>2022-09-08T14:57:23Z</time>
      </trkpt>
      <trkpt lat="43.07787" lon="2.37655">
        <ele>258</ele>
        <time>2022-09-08T14:57:34Z</time>
      </trkpt>
      <trkpt lat="43.07766" lon="2.37526">
        <ele>250</ele>
        <time>2022-09-08T14:58:22Z</time>
      </trkpt>
      <trkpt lat="43.0777" lon="2.37489">
        <ele>252</ele>
        <time>2022-09-08T14:58:36Z</time>
      </trkpt>
      <trkpt lat="43.07785" lon="2.37467">
        <ele>256</ele>
        <time>2022-09-08T14:58:47Z</time>
      </trkpt>
      <trkpt lat="43.07804" lon="2.37455">
        <ele>258</ele>
        <time>2022-09-08T14:58:57Z</time>
      </trkpt>
      <trkpt lat="43.07858" lon="2.37457">
        <ele>259</ele>
        <time>2022-09-08T14:59:24Z</time>
      </trkpt>
      <trkpt lat="43.07926" lon="2.37474">
        <ele>255</ele>
        <time>2022-09-08T14:59:59Z</time>
      </trkpt>
      <trkpt lat="43.08144" lon="2.37443">
        <ele>253</ele>
        <time>2022-09-08T15:01:49Z</time>
      </trkpt>
      <trkpt lat="43.0824" lon="2.37458">
        <ele>253</ele>
        <time>2022-09-08T15:02:37Z</time>
      </trkpt>
      <trkpt lat="43.0834" lon="2.37491">
        <ele>247</ele>
        <time>2022-09-08T15:03:29Z</time>
      </trkpt>
      <trkpt lat="43.08455" lon="2.37505">
        <ele>252</ele>
        <time>2022-09-08T15:04:26Z</time>
      </trkpt>
      <trkpt lat="43.08526" lon="2.37493">
        <ele>260</ele>
        <time>2022-09-08T15:05:02Z</time>
      </trkpt>
      <trkpt lat="43.08545" lon="2.37493">
        <ele>261</ele>
        <time>2022-09-08T15:05:12Z</time>
      </trkpt>
      <trkpt lat="43.08574" lon="2.37497">
        <ele>260</ele>
        <time>2022-09-08T15:05:26Z</time>
      </trkpt>
      <trkpt lat="43.08652" lon="2.3754">
        <ele>254</ele>
        <time>2022-09-08T15:06:08Z</time>
      </trkpt>
      <trkpt lat="43.08701" lon="2.37527">
        <ele>258</ele>
        <time>2022-09-08T15:06:33Z</time>
      </trkpt>
      <trkpt lat="43.0873" lon="2.37525">
        <ele>258</ele>
        <time>2022-09-08T15:06:48Z</time>
      </trkpt>
      <trkpt lat="43.08738" lon="2.3752">
        <ele>259</ele>
        <time>2022-09-08T15:06:52Z</time>
      </trkpt>
      <trkpt lat="43.0872" lon="2.37459">
        <ele>272</ele>
        <time>2022-09-08T15:07:16Z</time>
      </trkpt>
      <trkpt lat="43.08696" lon="2.37473">
        <ele>271</ele>
        <time>2022-09-08T15:07:29Z</time>
      </trkpt>
      <trkpt lat="43.08687" lon="2.37408">
        <ele>287</ele>
        <time>2022-09-08T15:07:53Z</time>
      </trkpt>
      <trkpt lat="43.08711" lon="2.37351">
        <ele>297</ele>
        <time>2022-09-08T15:08:17Z</time>
      </trkpt>
      <trkpt lat="43.08689" lon="2.37318">
        <ele>309</ele>
        <time>2022-09-08T15:08:34Z</time>
      </trkpt>
      <trkpt lat="43.08667" lon="2.37316">
        <ele>311</ele>
        <time>2022-09-08T15:08:45Z</time>
      </trkpt>
      <trkpt lat="43.08592" lon="2.37331">
        <ele>318</ele>
        <time>2022-09-08T15:09:23Z</time>
      </trkpt>
      <trkpt lat="43.08539" lon="2.37291">
        <ele>334</ele>
        <time>2022-09-08T15:09:53Z</time>
      </trkpt>
      <trkpt lat="43.08508" lon="2.37292">
        <ele>338</ele>
        <time>2022-09-08T15:10:09Z</time>
      </trkpt>
      <trkpt lat="43.08489" lon="2.37315">
        <ele>332</ele>
        <time>2022-09-08T15:10:21Z</time>
      </trkpt>
      <trkpt lat="43.08475" lon="2.37309">
        <ele>332</ele>
        <time>2022-09-08T15:10:29Z</time>
      </trkpt>
      <trkpt lat="43.08411" lon="2.37225">
        <ele>360</ele>
        <time>2022-09-08T15:11:13Z</time>
      </trkpt>
      <trkpt lat="43.0836" lon="2.37181">
        <ele>375</ele>
        <time>2022-09-08T15:11:43Z</time>
      </trkpt>
      <trkpt lat="43.08295" lon="2.37181">
        <ele>375</ele>
        <time>2022-09-08T15:12:16Z</time>
      </trkpt>
      <trkpt lat="43.08276" lon="2.37158">
        <ele>383</ele>
        <time>2022-09-08T15:12:28Z</time>
      </trkpt>
      <trkpt lat="43.08235" lon="2.37168">
        <ele>378</ele>
        <time>2022-09-08T15:12:49Z</time>
      </trkpt>
      <trkpt lat="43.08195" lon="2.37132">
        <ele>382</ele>
        <time>2022-09-08T15:13:13Z</time>
      </trkpt>
      <trkpt lat="43.08167" lon="2.37064">
        <ele>400</ele>
        <time>2022-09-08T15:13:42Z</time>
      </trkpt>
      <trkpt lat="43.08118" lon="2.37047">
        <ele>407</ele>
        <time>2022-09-08T15:14:07Z</time>
      </trkpt>
      <trkpt lat="43.08089" lon="2.37047">
        <ele>409</ele>
        <time>2022-09-08T15:14:22Z</time>
      </trkpt>
      <trkpt lat="43.08066" lon="2.37057">
        <ele>405</ele>
        <time>2022-09-08T15:14:34Z</time>
      </trkpt>
      <trkpt lat="43.08048" lon="2.37029">
        <ele>412</ele>
        <time>2022-09-08T15:14:47Z</time>
      </trkpt>
      <trkpt lat="43.08067" lon="2.36993">
        <ele>424</ele>
        <time>2022-09-08T15:15:03Z</time>
      </trkpt>
      <trkpt lat="43.08085" lon="2.3699">
        <ele>426</ele>
        <time>2022-09-08T15:15:13Z</time>
      </trkpt>
      <trkpt lat="43.08102" lon="2.36951">
        <ele>439</ele>
        <time>2022-09-08T15:15:29Z</time>
      </trkpt>
      <trkpt lat="43.08132" lon="2.36941">
        <ele>440</ele>
        <time>2022-09-08T15:15:45Z</time>
      </trkpt>
      <trkpt lat="43.08156" lon="2.36946">
        <ele>436</ele>
        <time>2022-09-08T15:15:57Z</time>
      </trkpt>
      <trkpt lat="43.08182" lon="2.36921">
        <ele>445</ele>
        <time>2022-09-08T15:16:13Z</time>
      </trkpt>
      <trkpt lat="43.08194" lon="2.36915">
        <ele>447</ele>
        <time>2022-09-08T15:16:19Z</time>
      </trkpt>
      <trkpt lat="43.08289" lon="2.36897">
        <ele>449</ele>
        <time>2022-09-08T15:17:07Z</time>
      </trkpt>
      <trkpt lat="43.08319" lon="2.36907">
        <ele>448</ele>
        <time>2022-09-08T15:17:22Z</time>
      </trkpt>
      <trkpt lat="43.08365" lon="2.36965">
        <ele>434</ele>
        <time>2022-09-08T15:17:54Z</time>
      </trkpt>
      <trkpt lat="43.08407" lon="2.36969">
        <ele>434</ele>
        <time>2022-09-08T15:18:15Z</time>
      </trkpt>
      <trkpt lat="43.08423" lon="2.36974">
        <ele>434</ele>
        <time>2022-09-08T15:18:23Z</time>
      </trkpt>
      <trkpt lat="43.08562" lon="2.3696">
        <ele>434</ele>
        <time>2022-09-08T15:19:33Z</time>
      </trkpt>
      <trkpt lat="43.08628" lon="2.36983">
        <ele>433</ele>
        <time>2022-09-08T15:20:07Z</time>
      </trkpt>
      <trkpt lat="43.08639" lon="2.36995">
        <ele>434</ele>
        <time>2022-09-08T15:20:14Z</time>
      </trkpt>
      <trkpt lat="43.08654" lon="2.36996">
        <ele>433</ele>
        <time>2022-09-08T15:20:21Z</time>
      </trkpt>
      <trkpt lat="43.08711" lon="2.37018">
        <ele>423</ele>
        <time>2022-09-08T15:20:51Z</time>
      </trkpt>
      <trkpt lat="43.08755" lon="2.37005">
        <ele>424</ele>
        <time>2022-09-08T15:21:14Z</time>
      </trkpt>
      <trkpt lat="43.08787" lon="2.37029">
        <ele>413</ele>
        <time>2022-09-08T15:21:32Z</time>
      </trkpt>
      <trkpt lat="43.08836" lon="2.37099">
        <ele>397</ele>
        <time>2022-09-08T15:22:07Z</time>
      </trkpt>
      <trkpt lat="43.089" lon="2.37145">
        <ele>384</ele>
        <time>2022-09-08T15:22:43Z</time>
      </trkpt>
      <trkpt lat="43.08915" lon="2.37109">
        <ele>386</ele>
        <time>2022-09-08T15:22:59Z</time>
      </trkpt>
      <trkpt lat="43.08931" lon="2.37087">
        <ele>383</ele>
        <time>2022-09-08T15:23:10Z</time>
      </trkpt>
      <trkpt lat="43.08996" lon="2.37052">
        <ele>361</ele>
        <time>2022-09-08T15:23:45Z</time>
      </trkpt>
      <trkpt lat="43.09033" lon="2.36968">
        <ele>348</ele>
        <time>2022-09-08T15:24:21Z</time>
      </trkpt>
      <trkpt lat="43.09081" lon="2.369">
        <ele>334</ele>
        <time>2022-09-08T15:24:55Z</time>
      </trkpt>
      <trkpt lat="43.09077" lon="2.36771">
        <ele>325</ele>
        <time>2022-09-08T15:25:42Z</time>
      </trkpt>
      <trkpt lat="43.09121" lon="2.36685">
        <ele>309</ele>
        <time>2022-09-08T15:26:21Z</time>
      </trkpt>
      <trkpt lat="43.09187" lon="2.36658">
        <ele>297</ele>
        <time>2022-09-08T15:26:55Z</time>
      </trkpt>
      <trkpt lat="43.09224" lon="2.36675">
        <ele>295</ele>
        <time>2022-09-08T15:27:15Z</time>
      </trkpt>
      <trkpt lat="43.09239" lon="2.36672">
        <ele>293</ele>
        <time>2022-09-08T15:27:22Z</time>
      </trkpt>
      <trkpt lat="43.09261" lon="2.36657">
        <ele>290</ele>
        <time>2022-09-08T15:27:35Z</time>
      </trkpt>
      <trkpt lat="43.09266" lon="2.36635">
        <ele>288</ele>
        <time>2022-09-08T15:27:43Z</time>
      </trkpt>
      <trkpt lat="43.09309" lon="2.36571">
        <ele>278</ele>
        <time>2022-09-08T15:28:15Z</time>
      </trkpt>
      <trkpt lat="43.09333" lon="2.36448">
        <ele>273</ele>
        <time>2022-09-08T15:29:01Z</time>
      </trkpt>
      <trkpt lat="43.09366" lon="2.36397">
        <ele>271</ele>
        <time>2022-09-08T15:29:26Z</time>
      </trkpt>
      <trkpt lat="43.09372" lon="2.36337">
        <ele>275</ele>
        <time>2022-09-08T15:29:49Z</time>
      </trkpt>
      <trkpt lat="43.09372" lon="2.36264">
        <ele>279</ele>
        <time>2022-09-08T15:30:15Z</time>
      </trkpt>
      <trkpt lat="43.09353" lon="2.3621">
        <ele>285</ele>
        <time>2022-09-08T15:30:37Z</time>
      </trkpt>
      <trkpt lat="43.09349" lon="2.36179">
        <ele>287</ele>
        <time>2022-09-08T15:30:49Z</time>
      </trkpt>
      <trkpt lat="43.09355" lon="2.36139">
        <ele>288</ele>
        <time>2022-09-08T15:31:04Z</time>
      </trkpt>
      <trkpt lat="43.09522" lon="2.36081">
        <ele>292</ele>
        <time>2022-09-08T15:32:30Z</time>
      </trkpt>
      <trkpt lat="43.09555" lon="2.36057">
        <ele>289</ele>
        <time>2022-09-08T15:32:48Z</time>
      </trkpt>
      <trkpt lat="43.0957" lon="2.36022">
        <ele>290</ele>
        <time>2022-09-08T15:33:03Z</time>
      </trkpt>
      <trkpt lat="43.09581" lon="2.35976">
        <ele>290</ele>
        <time>2022-09-08T15:33:21Z</time>
      </trkpt>
      <trkpt lat="43.09599" lon="2.35921">
        <ele>287</ele>
        <time>2022-09-08T15:33:43Z</time>
      </trkpt>
      <trkpt lat="43.09659" lon="2.35844">
        <ele>275</ele>
        <time>2022-09-08T15:34:24Z</time>
      </trkpt>
      <trkpt lat="43.09709" lon="2.35711">
        <ele>264</ele>
        <time>2022-09-08T15:35:19Z</time>
      </trkpt>
      <trkpt lat="43.09774" lon="2.35684">
        <ele>260</ele>
        <time>2022-09-08T15:35:53Z</time>
      </trkpt>
      <trkpt lat="43.09786" lon="2.35675">
        <ele>257</ele>
        <time>2022-09-08T15:36:00Z</time>
      </trkpt>
      <trkpt lat="43.09797" lon="2.35647">
        <ele>256</ele>
        <time>2022-09-08T15:36:11Z</time>
      </trkpt>
      <trkpt lat="43.0983" lon="2.35619">
        <ele>250</ele>
        <time>2022-09-08T15:36:31Z</time>
      </trkpt>
      <trkpt lat="43.0983" lon="2.35592">
        <ele>251</ele>
        <time>2022-09-08T15:36:41Z</time>
      </trkpt>
      <trkpt lat="43.09853" lon="2.35565">
        <ele>249</ele>
        <time>2022-09-08T15:36:56Z</time>
      </trkpt>
      <trkpt lat="43.09877" lon="2.35552">
        <ele>247</ele>
        <time>2022-09-08T15:37:09Z</time>
      </trkpt>
      <trkpt lat="43.09905" lon="2.35545">
        <ele>244</ele>
        <time>2022-09-08T15:37:23Z</time>
      </trkpt>
      <trkpt lat="43.09949" lon="2.35548">
        <ele>237</ele>
        <time>2022-09-08T15:37:45Z</time>
      </trkpt>
      <trkpt lat="43.10089" lon="2.35417">
        <ele>221</ele>
        <time>2022-09-08T15:39:10Z</time>
      </trkpt>
      <trkpt lat="43.10188" lon="2.3537">
        <ele>219</ele>
        <time>2022-09-08T15:40:02Z</time>
      </trkpt>
      <trkpt lat="43.10205" lon="2.35373">
        <ele>216</ele>
        <time>2022-09-08T15:40:11Z</time>
      </trkpt>
      <trkpt lat="43.10214" lon="2.35406">
        <ele>212</ele>
        <time>2022-09-08T15:40:24Z</time>
      </trkpt>
      <trkpt lat="43.10277" lon="2.35536">
        <ele>207</ele>
        <time>2022-09-08T15:41:21Z</time>
      </trkpt>
      <trkpt lat="43.10285" lon="2.35385">
        <ele>201</ele>
        <time>2022-09-08T15:42:16Z</time>
      </trkpt>
      <trkpt lat="43.10271" lon="2.35138">
        <ele>195</ele>
        <time>2022-09-08T15:43:46Z</time>
      </trkpt>
      <trkpt lat="43.1027" lon="2.35079">
        <ele>193</ele>
        <time>2022-09-08T15:44:08Z</time>
      </trkpt>
      <trkpt lat="43.10289" lon="2.35077">
        <ele>191</ele>
        <time>2022-09-08T15:44:18Z</time>
      </trkpt>
      <trkpt lat="43.10301" lon="2.35073">
        <ele>189</ele>
        <time>2022-09-08T15:44:24Z</time>
      </trkpt>
      <trkpt lat="43.10318" lon="2.35072">
        <ele>187</ele>
        <time>2022-09-08T15:44:32Z</time>
      </trkpt>
      <trkpt lat="43.1033" lon="2.35103">
        <ele>186</ele>
        <time>2022-09-08T15:44:45Z</time>
      </trkpt>
      <trkpt lat="43.10403" lon="2.35161">
        <ele>188</ele>
        <time>2022-09-08T15:45:27Z</time>
      </trkpt>
      <trkpt lat="43.1043" lon="2.35178">
        <ele>189</ele>
        <time>2022-09-08T15:45:42Z</time>
      </trkpt>
      <trkpt lat="43.10458" lon="2.35219">
        <ele>193</ele>
        <time>2022-09-08T15:46:03Z</time>
      </trkpt>
      <trkpt lat="43.10461" lon="2.35236">
        <ele>193</ele>
        <time>2022-09-08T15:46:09Z</time>
      </trkpt>
      <trkpt lat="43.10469" lon="2.35241">
        <ele>194</ele>
        <time>2022-09-08T15:46:13Z</time>
      </trkpt>
      <trkpt lat="43.10483" lon="2.35267">
        <ele>195</ele>
        <time>2022-09-08T15:46:25Z</time>
      </trkpt>
      <trkpt lat="43.10499" lon="2.35271">
        <ele>196</ele>
        <time>2022-09-08T15:46:33Z</time>
      </trkpt>
      <trkpt lat="43.10503" lon="2.35295">
        <ele>195</ele>
        <time>2022-09-08T15:46:42Z</time>
      </trkpt>
      <trkpt lat="43.10508" lon="2.35308">
        <ele>195</ele>
        <time>2022-09-08T15:46:48Z</time>
      </trkpt>
      <trkpt lat="43.1052" lon="2.35314">
        <ele>195</ele>
        <time>2022-09-08T15:46:54Z</time>
      </trkpt>
      <trkpt lat="43.10556" lon="2.3532">
        <ele>197</ele>
        <time>2022-09-08T15:47:12Z</time>
      </trkpt>
      <trkpt lat="43.10568" lon="2.35354">
        <ele>198</ele>
        <time>2022-09-08T15:47:26Z</time>
      </trkpt>
      <trkpt lat="43.10578" lon="2.35365">
        <ele>199</ele>
        <time>2022-09-08T15:47:33Z</time>
      </trkpt>
      <trkpt lat="43.10583" lon="2.35378">
        <ele>200</ele>
        <time>2022-09-08T15:47:38Z</time>
      </trkpt>
      <trkpt lat="43.10587" lon="2.35394">
        <ele>201</ele>
        <time>2022-09-08T15:47:44Z</time>
      </trkpt>
      <trkpt lat="43.10583" lon="2.35438">
        <ele>203</ele>
        <time>2022-09-08T15:48:00Z</time>
      </trkpt>
      <trkpt lat="43.10589" lon="2.35473">
        <ele>206</ele>
        <time>2022-09-08T15:48:13Z</time>
      </trkpt>
      <trkpt lat="43.1059" lon="2.35512">
        <ele>209</ele>
        <time>2022-09-08T15:48:28Z</time>
      </trkpt>
      <trkpt lat="43.10603" lon="2.35568">
        <ele>213</ele>
        <time>2022-09-08T15:48:49Z</time>
      </trkpt>
      <trkpt lat="43.10594" lon="2.35634">
        <ele>219</ele>
        <time>2022-09-08T15:49:14Z</time>
      </trkpt>
      <trkpt lat="43.10588" lon="2.35704">
        <ele>224</ele>
        <time>2022-09-08T15:49:39Z</time>
      </trkpt>
      <trkpt lat="43.10579" lon="2.35737">
        <ele>225</ele>
        <time>2022-09-08T15:49:52Z</time>
      </trkpt>
      <trkpt lat="43.10568" lon="2.35764">
        <ele>225</ele>
        <time>2022-09-08T15:50:04Z</time>
      </trkpt>
      <trkpt lat="43.10564" lon="2.35813">
        <ele>227</ele>
        <time>2022-09-08T15:50:22Z</time>
      </trkpt>
      <trkpt lat="43.10564" lon="2.35855">
        <ele>230</ele>
        <time>2022-09-08T15:50:37Z</time>
      </trkpt>
      <trkpt lat="43.10598" lon="2.35931">
        <ele>237</ele>
        <time>2022-09-08T15:51:10Z</time>
      </trkpt>
      <trkpt lat="43.10599" lon="2.35962">
        <ele>239</ele>
        <time>2022-09-08T15:51:21Z</time>
      </trkpt>
      <trkpt lat="43.10596" lon="2.36025">
        <ele>242</ele>
        <time>2022-09-08T15:51:44Z</time>
      </trkpt>
      <trkpt lat="43.10592" lon="2.36058">
        <ele>244</ele>
        <time>2022-09-08T15:51:56Z</time>
      </trkpt>
      <trkpt lat="43.10589" lon="2.36079">
        <ele>244</ele>
        <time>2022-09-08T15:52:04Z</time>
      </trkpt>
      <trkpt lat="43.10574" lon="2.36113">
        <ele>244</ele>
        <time>2022-09-08T15:52:18Z</time>
      </trkpt>
      <trkpt lat="43.10573" lon="2.36125">
        <ele>245</ele>
        <time>2022-09-08T15:52:23Z</time>
      </trkpt>
      <trkpt lat="43.1058" lon="2.36156">
        <ele>245</ele>
        <time>2022-09-08T15:52:35Z</time>
      </trkpt>
      <trkpt lat="43.10599" lon="2.36193">
        <ele>249</ele>
        <time>2022-09-08T15:52:51Z</time>
      </trkpt>
      <trkpt lat="43.10609" lon="2.36203">
        <ele>251</ele>
        <time>2022-09-08T15:52:57Z</time>
      </trkpt>
      <trkpt lat="43.10621" lon="2.36227">
        <ele>254</ele>
        <time>2022-09-08T15:53:08Z</time>
      </trkpt>
      <trkpt lat="43.10677" lon="2.36294">
        <ele>268</ele>
        <time>2022-09-08T15:53:45Z</time>
      </trkpt>
      <trkpt lat="43.10687" lon="2.3629">
        <ele>269</ele>
        <time>2022-09-08T15:53:51Z</time>
      </trkpt>
      <trkpt lat="43.10694" lon="2.36268">
        <ele>268</ele>
        <time>2022-09-08T15:53:59Z</time>
      </trkpt>
      <trkpt lat="43.10702" lon="2.36254">
        <ele>268</ele>
        <time>2022-09-08T15:54:06Z</time>
      </trkpt>
      <trkpt lat="43.10716" lon="2.36258">
        <ele>271</ele>
        <time>2022-09-08T15:54:13Z</time>
      </trkpt>
      <trkpt lat="43.10722" lon="2.36298">
        <ele>276</ele>
        <time>2022-09-08T15:54:28Z</time>
      </trkpt>
      <trkpt lat="43.10724" lon="2.36364">
        <ele>281</ele>
        <time>2022-09-08T15:54:52Z</time>
      </trkpt>
      <trkpt lat="43.10732" lon="2.36378">
        <ele>283</ele>
        <time>2022-09-08T15:54:59Z</time>
      </trkpt>
      <trkpt lat="43.10754" lon="2.3639">
        <ele>287</ele>
        <time>2022-09-08T15:55:10Z</time>
      </trkpt>
      <trkpt lat="43.10771" lon="2.36392">
        <ele>290</ele>
        <time>2022-09-08T15:55:19Z</time>
      </trkpt>
      <trkpt lat="43.10793" lon="2.3645">
        <ele>289</ele>
        <time>2022-09-08T15:55:43Z</time>
      </trkpt>
      <trkpt lat="43.10829" lon="2.36452">
        <ele>294</ele>
        <time>2022-09-08T15:56:01Z</time>
      </trkpt>
      <trkpt lat="43.1089" lon="2.36461">
        <ele>292</ele>
        <time>2022-09-08T15:56:32Z</time>
      </trkpt>
      <trkpt lat="43.10887" lon="2.36469">
        <ele>292</ele>
        <time>2022-09-08T15:56:35Z</time>
      </trkpt>
      <trkpt lat="43.10891" lon="2.36485">
        <ele>290</ele>
        <time>2022-09-08T15:56:41Z</time>
      </trkpt>
      <trkpt lat="43.10891" lon="2.365">
        <ele>288</ele>
        <time>2022-09-08T15:56:46Z</time>
      </trkpt>
      <trkpt lat="43.1088" lon="2.36529">
        <ele>289</ele>
        <time>2022-09-08T15:56:58Z</time>
      </trkpt>
      <trkpt lat="43.10877" lon="2.3657">
        <ele>291</ele>
        <time>2022-09-08T15:57:13Z</time>
      </trkpt>
      <trkpt lat="43.10865" lon="2.36612">
        <ele>290</ele>
        <time>2022-09-08T15:57:30Z</time>
      </trkpt>
      <trkpt lat="43.10863" lon="2.36628">
        <ele>290</ele>
        <time>2022-09-08T15:57:36Z</time>
      </trkpt>
      <trkpt lat="43.10864" lon="2.36657">
        <ele>291</ele>
        <time>2022-09-08T15:57:46Z</time>
      </trkpt>
      <trkpt lat="43.10859" lon="2.36684">
        <ele>291</ele>
        <time>2022-09-08T15:57:57Z</time>
      </trkpt>
      <trkpt lat="43.10853" lon="2.36747">
        <ele>292</ele>
        <time>2022-09-08T15:58:20Z</time>
      </trkpt>
      <trkpt lat="43.10859" lon="2.368">
        <ele>296</ele>
        <time>2022-09-08T15:58:39Z</time>
      </trkpt>
      <trkpt lat="43.10871" lon="2.36824">
        <ele>297</ele>
        <time>2022-09-08T15:58:50Z</time>
      </trkpt>
      <trkpt lat="43.10859" lon="2.36879">
        <ele>303</ele>
        <time>2022-09-08T15:59:11Z</time>
      </trkpt>
      <trkpt lat="43.10836" lon="2.36893">
        <ele>306</ele>
        <time>2022-09-08T15:59:24Z</time>
      </trkpt>
      <trkpt lat="43.10824" lon="2.36929">
        <ele>307</ele>
        <time>2022-09-08T15:59:38Z</time>
      </trkpt>
      <trkpt lat="43.10821" lon="2.36949">
        <ele>307</ele>
        <time>2022-09-08T15:59:46Z</time>
      </trkpt>
      <trkpt lat="43.10832" lon="2.3715">
        <ele>310</ele>
        <time>2022-09-08T16:00:59Z</time>
      </trkpt>
      <trkpt lat="43.10823" lon="2.37211">
        <ele>310</ele>
        <time>2022-09-08T16:01:22Z</time>
      </trkpt>
      <trkpt lat="43.10823" lon="2.37311">
        <ele>317</ele>
        <time>2022-09-08T16:01:58Z</time>
      </trkpt>
      <trkpt lat="43.10813" lon="2.37406">
        <ele>313</ele>
        <time>2022-09-08T16:02:34Z</time>
      </trkpt>
      <trkpt lat="43.108" lon="2.37434">
        <ele>311</ele>
        <time>2022-09-08T16:02:46Z</time>
      </trkpt>
      <trkpt lat="43.10782" lon="2.37502">
        <ele>309</ele>
        <time>2022-09-08T16:03:12Z</time>
      </trkpt>
      <trkpt lat="43.10788" lon="2.37575">
        <ele>313</ele>
        <time>2022-09-08T16:03:39Z</time>
      </trkpt>
      <trkpt lat="43.10784" lon="2.37642">
        <ele>319</ele>
        <time>2022-09-08T16:04:03Z</time>
      </trkpt>
      <trkpt lat="43.10776" lon="2.37693">
        <ele>322</ele>
        <time>2022-09-08T16:04:23Z</time>
      </trkpt>
      <trkpt lat="43.10756" lon="2.3774">
        <ele>324</ele>
        <time>2022-09-08T16:04:42Z</time>
      </trkpt>
      <trkpt lat="43.10761" lon="2.37788">
        <ele>328</ele>
        <time>2022-09-08T16:05:00Z</time>
      </trkpt>
      <trkpt lat="43.10758" lon="2.37828">
        <ele>331</ele>
        <time>2022-09-08T16:05:15Z</time>
      </trkpt>
      <trkpt lat="43.10744" lon="2.37847">
        <ele>332</ele>
        <time>2022-09-08T16:05:25Z</time>
      </trkpt>
      <trkpt lat="43.10722" lon="2.37894">
        <ele>332</ele>
        <time>2022-09-08T16:05:45Z</time>
      </trkpt>
      <trkpt lat="43.10735" lon="2.37939">
        <ele>339</ele>
        <time>2022-09-08T16:06:03Z</time>
      </trkpt>
      <trkpt lat="43.10717" lon="2.37966">
        <ele>337</ele>
        <time>2022-09-08T16:06:16Z</time>
      </trkpt>
      <trkpt lat="43.10706" lon="2.38002">
        <ele>338</ele>
        <time>2022-09-08T16:06:30Z</time>
      </trkpt>
      <trkpt lat="43.10684" lon="2.38103">
        <ele>339</ele>
        <time>2022-09-08T16:07:09Z</time>
      </trkpt>
      <trkpt lat="43.10686" lon="2.38155">
        <ele>342</ele>
        <time>2022-09-08T16:07:28Z</time>
      </trkpt>
      <trkpt lat="43.10691" lon="2.38189">
        <ele>345</ele>
        <time>2022-09-08T16:07:41Z</time>
      </trkpt>
      <trkpt lat="43.10703" lon="2.38195">
        <ele>346</ele>
        <time>2022-09-08T16:07:47Z</time>
      </trkpt>
      <trkpt lat="43.10706" lon="2.38218">
        <ele>348</ele>
        <time>2022-09-08T16:07:55Z</time>
      </trkpt>
      <trkpt lat="43.10699" lon="2.38253">
        <ele>350</ele>
        <time>2022-09-08T16:08:09Z</time>
      </trkpt>
      <trkpt lat="43.10687" lon="2.38277">
        <ele>353</ele>
        <time>2022-09-08T16:08:19Z</time>
      </trkpt>
      <trkpt lat="43.10687" lon="2.38309">
        <ele>355</ele>
        <time>2022-09-08T16:08:31Z</time>
      </trkpt>
      <trkpt lat="43.1066" lon="2.38362">
        <ele>360</ele>
        <time>2022-09-08T16:08:55Z</time>
      </trkpt>
      <trkpt lat="43.10656" lon="2.38377">
        <ele>360</ele>
        <time>2022-09-08T16:09:01Z</time>
      </trkpt>
      <trkpt lat="43.10634" lon="2.3838">
        <ele>361</ele>
        <time>2022-09-08T16:09:12Z</time>
      </trkpt>
      <trkpt lat="43.10619" lon="2.38388">
        <ele>362</ele>
        <time>2022-09-08T16:09:20Z</time>
      </trkpt>
      <trkpt lat="43.10599" lon="2.38388">
        <ele>362</ele>
        <time>2022-09-08T16:09:30Z</time>
      </trkpt>
      <trkpt lat="43.10565" lon="2.38394">
        <ele>361</ele>
        <time>2022-09-08T16:09:47Z</time>
      </trkpt>
      <trkpt lat="43.10561" lon="2.38401">
        <ele>361</ele>
        <time>2022-09-08T16:09:50Z</time>
      </trkpt>
      <trkpt lat="43.10534" lon="2.3842">
        <ele>360</ele>
        <time>2022-09-08T16:10:05Z</time>
      </trkpt>
      <trkpt lat="43.10518" lon="2.38438">
        <ele>359</ele>
        <time>2022-09-08T16:10:16Z</time>
      </trkpt>
      <trkpt lat="43.10519" lon="2.38518">
        <ele>361</ele>
        <time>2022-09-08T16:10:45Z</time>
      </trkpt>
      <trkpt lat="43.10517" lon="2.3856">
        <ele>363</ele>
        <time>2022-09-08T16:11:00Z</time>
      </trkpt>
      <trkpt lat="43.10507" lon="2.38604">
        <ele>367</ele>
        <time>2022-09-08T16:11:17Z</time>
      </trkpt>
      <trkpt lat="43.10458" lon="2.38673">
        <ele>369</ele>
        <time>2022-09-08T16:11:52Z</time>
      </trkpt>
      <trkpt lat="43.10471" lon="2.38774">
        <ele>370</ele>
        <time>2022-09-08T16:12:30Z</time>
      </trkpt>
      <trkpt lat="43.10473" lon="2.3881">
        <ele>371</ele>
        <time>2022-09-08T16:12:43Z</time>
      </trkpt>
      <trkpt lat="43.10464" lon="2.38904">
        <ele>377</ele>
        <time>2022-09-08T16:13:18Z</time>
      </trkpt>
      <trkpt lat="43.10468" lon="2.38992">
        <ele>386</ele>
        <time>2022-09-08T16:13:50Z</time>
      </trkpt>
      <trkpt lat="43.10475" lon="2.39026">
        <ele>391</ele>
        <time>2022-09-08T16:14:03Z</time>
      </trkpt>
      <trkpt lat="43.1047" lon="2.39058">
        <ele>394</ele>
        <time>2022-09-08T16:14:15Z</time>
      </trkpt>
      <trkpt lat="43.1046" lon="2.39086">
        <ele>397</ele>
        <time>2022-09-08T16:14:26Z</time>
      </trkpt>
      <trkpt lat="43.10453" lon="2.39126">
        <ele>396</ele>
        <time>2022-09-08T16:14:41Z</time>
      </trkpt>
      <trkpt lat="43.10452" lon="2.39145">
        <ele>395</ele>
        <time>2022-09-08T16:14:48Z</time>
      </trkpt>
      <trkpt lat="43.10457" lon="2.39175">
        <ele>395</ele>
        <time>2022-09-08T16:14:59Z</time>
      </trkpt>
      <trkpt lat="43.10472" lon="2.39208">
        <ele>396</ele>
        <time>2022-09-08T16:15:13Z</time>
      </trkpt>
      <trkpt lat="43.10476" lon="2.39226">
        <ele>396</ele>
        <time>2022-09-08T16:15:20Z</time>
      </trkpt>
      <trkpt lat="43.10467" lon="2.39278">
        <ele>394</ele>
        <time>2022-09-08T16:15:40Z</time>
      </trkpt>
      <trkpt lat="43.10467" lon="2.39303">
        <ele>394</ele>
        <time>2022-09-08T16:15:49Z</time>
      </trkpt>
      <trkpt lat="43.10472" lon="2.39343">
        <ele>395</ele>
        <time>2022-09-08T16:16:04Z</time>
      </trkpt>
      <trkpt lat="43.10509" lon="2.39381">
        <ele>398</ele>
        <time>2022-09-08T16:16:27Z</time>
      </trkpt>
      <trkpt lat="43.10528" lon="2.39409">
        <ele>395</ele>
        <time>2022-09-08T16:16:41Z</time>
      </trkpt>
      <trkpt lat="43.10562" lon="2.39473">
        <ele>392</ele>
        <time>2022-09-08T16:17:10Z</time>
      </trkpt>
      <trkpt lat="43.10582" lon="2.39569">
        <ele>387</ele>
        <time>2022-09-08T16:17:46Z</time>
      </trkpt>
      <trkpt lat="43.10582" lon="2.39593">
        <ele>386</ele>
        <time>2022-09-08T16:17:55Z</time>
      </trkpt>
      <trkpt lat="43.10577" lon="2.39636">
        <ele>389</ele>
        <time>2022-09-08T16:18:11Z</time>
      </trkpt>
      <trkpt lat="43.10535" lon="2.39738">
        <ele>399</ele>
        <time>2022-09-08T16:18:54Z</time>
      </trkpt>
      <trkpt lat="43.10521" lon="2.39794">
        <ele>405</ele>
        <time>2022-09-08T16:19:15Z</time>
      </trkpt>
      <trkpt lat="43.10519" lon="2.39821">
        <ele>407</ele>
        <time>2022-09-08T16:19:25Z</time>
      </trkpt>
      <trkpt lat="43.10535" lon="2.39884">
        <ele>401</ele>
        <time>2022-09-08T16:19:50Z</time>
      </trkpt>
      <trkpt lat="43.10555" lon="2.39934">
        <ele>400</ele>
        <time>2022-09-08T16:20:10Z</time>
      </trkpt>
      <trkpt lat="43.10564" lon="2.39972">
        <ele>401</ele>
        <time>2022-09-08T16:20:25Z</time>
      </trkpt>
      <trkpt lat="43.10589" lon="2.40003">
        <ele>407</ele>
        <time>2022-09-08T16:20:42Z</time>
      </trkpt>
      <trkpt lat="43.10598" lon="2.40022">
        <ele>406</ele>
        <time>2022-09-08T16:20:50Z</time>
      </trkpt>
      <trkpt lat="43.10602" lon="2.40051">
        <ele>404</ele>
        <time>2022-09-08T16:21:01Z</time>
      </trkpt>
      <trkpt lat="43.106" lon="2.40087">
        <ele>402</ele>
        <time>2022-09-08T16:21:14Z</time>
      </trkpt>
      <trkpt lat="43.10594" lon="2.40111">
        <ele>401</ele>
        <time>2022-09-08T16:21:23Z</time>
      </trkpt>
      <trkpt lat="43.10591" lon="2.40139">
        <ele>399</ele>
        <time>2022-09-08T16:21:34Z</time>
      </trkpt>
      <trkpt lat="43.10603" lon="2.4018">
        <ele>395</ele>
        <time>2022-09-08T16:21:50Z</time>
      </trkpt>
      <trkpt lat="43.10603" lon="2.40214">
        <ele>389</ele>
        <time>2022-09-08T16:22:02Z</time>
      </trkpt>
      <trkpt lat="43.1061" lon="2.40267">
        <ele>385</ele>
        <time>2022-09-08T16:22:22Z</time>
      </trkpt>
      <trkpt lat="43.10599" lon="2.40292">
        <ele>383</ele>
        <time>2022-09-08T16:22:33Z</time>
      </trkpt>
      <trkpt lat="43.10597" lon="2.40307">
        <ele>383</ele>
        <time>2022-09-08T16:22:38Z</time>
      </trkpt>
      <trkpt lat="43.10571" lon="2.40381">
        <ele>381</ele>
        <time>2022-09-08T16:23:08Z</time>
      </trkpt>
      <trkpt lat="43.10551" lon="2.40419">
        <ele>380</ele>
        <time>2022-09-08T16:23:25Z</time>
      </trkpt>
      <trkpt lat="43.10556" lon="2.40437">
        <ele>380</ele>
        <time>2022-09-08T16:23:32Z</time>
      </trkpt>
      <trkpt lat="43.1058" lon="2.40465">
        <ele>384</ele>
        <time>2022-09-08T16:23:48Z</time>
      </trkpt>
      <trkpt lat="43.10598" lon="2.405">
        <ele>386</ele>
        <time>2022-09-08T16:24:04Z</time>
      </trkpt>
      <trkpt lat="43.10597" lon="2.40564">
        <ele>383</ele>
        <time>2022-09-08T16:24:27Z</time>
      </trkpt>
      <trkpt lat="43.10594" lon="2.40582">
        <ele>382</ele>
        <time>2022-09-08T16:24:34Z</time>
      </trkpt>
      <trkpt lat="43.10586" lon="2.40606">
        <ele>382</ele>
        <time>2022-09-08T16:24:44Z</time>
      </trkpt>
      <trkpt lat="43.1056" lon="2.40644">
        <ele>376</ele>
        <time>2022-09-08T16:25:03Z</time>
      </trkpt>
      <trkpt lat="43.10554" lon="2.4066">
        <ele>375</ele>
        <time>2022-09-08T16:25:09Z</time>
      </trkpt>
      <trkpt lat="43.10552" lon="2.40678">
        <ele>374</ele>
        <time>2022-09-08T16:25:16Z</time>
      </trkpt>
      <trkpt lat="43.10557" lon="2.40699">
        <ele>374</ele>
        <time>2022-09-08T16:25:24Z</time>
      </trkpt>
      <trkpt lat="43.10563" lon="2.40707">
        <ele>375</ele>
        <time>2022-09-08T16:25:28Z</time>
      </trkpt>
      <trkpt lat="43.10569" lon="2.40706">
        <ele>377</ele>
        <time>2022-09-08T16:25:31Z</time>
      </trkpt>
      <trkpt lat="43.10578" lon="2.40699">
        <ele>379</ele>
        <time>2022-09-08T16:25:36Z</time>
      </trkpt>
      <trkpt lat="43.10597" lon="2.40649">
        <ele>381</ele>
        <time>2022-09-08T16:25:57Z</time>
      </trkpt>
      <trkpt lat="43.10625" lon="2.40586">
        <ele>383</ele>
        <time>2022-09-08T16:26:24Z</time>
      </trkpt>
      <trkpt lat="43.10643" lon="2.4056">
        <ele>386</ele>
        <time>2022-09-08T16:26:37Z</time>
      </trkpt>
      <trkpt lat="43.10662" lon="2.40547">
        <ele>388</ele>
        <time>2022-09-08T16:26:48Z</time>
      </trkpt>
      <trkpt lat="43.10669" lon="2.40538">
        <ele>390</ele>
        <time>2022-09-08T16:26:52Z</time>
      </trkpt>
      <trkpt lat="43.10671" lon="2.40526">
        <ele>391</ele>
        <time>2022-09-08T16:26:57Z</time>
      </trkpt>
      <trkpt lat="43.10669" lon="2.40452">
        <ele>399</ele>
        <time>2022-09-08T16:27:24Z</time>
      </trkpt>
      <trkpt lat="43.10674" lon="2.40435">
        <ele>400</ele>
        <time>2022-09-08T16:27:31Z</time>
      </trkpt>
      <trkpt lat="43.10718" lon="2.40393">
        <ele>397</ele>
        <time>2022-09-08T16:27:57Z</time>
      </trkpt>
      <trkpt lat="43.10734" lon="2.40385">
        <ele>396</ele>
        <time>2022-09-08T16:28:06Z</time>
      </trkpt>
      <trkpt lat="43.10773" lon="2.4039">
        <ele>393</ele>
        <time>2022-09-08T16:28:26Z</time>
      </trkpt>
      <trkpt lat="43.10797" lon="2.40405">
        <ele>393</ele>
        <time>2022-09-08T16:28:39Z</time>
      </trkpt>
      <trkpt lat="43.10805" lon="2.40422">
        <ele>392</ele>
        <time>2022-09-08T16:28:46Z</time>
      </trkpt>
      <trkpt lat="43.10848" lon="2.40465">
        <ele>394</ele>
        <time>2022-09-08T16:29:13Z</time>
      </trkpt>
      <trkpt lat="43.10878" lon="2.405">
        <ele>400</ele>
        <time>2022-09-08T16:29:33Z</time>
      </trkpt>
      <trkpt lat="43.10889" lon="2.40528">
        <ele>401</ele>
        <time>2022-09-08T16:29:44Z</time>
      </trkpt>
      <trkpt lat="43.10881" lon="2.40592">
        <ele>395</ele>
        <time>2022-09-08T16:30:08Z</time>
      </trkpt>
      <trkpt lat="43.10886" lon="2.40671">
        <ele>391</ele>
        <time>2022-09-08T16:30:37Z</time>
      </trkpt>
      <trkpt lat="43.10896" lon="2.40684">
        <ele>392</ele>
        <time>2022-09-08T16:30:44Z</time>
      </trkpt>
      <trkpt lat="43.10884" lon="2.40728">
        <ele>387</ele>
        <time>2022-09-08T16:31:01Z</time>
      </trkpt>
      <trkpt lat="43.10899" lon="2.40747">
        <ele>386</ele>
        <time>2022-09-08T16:31:11Z</time>
      </trkpt>
      <trkpt lat="43.10957" lon="2.40771">
        <ele>385</ele>
        <time>2022-09-08T16:31:41Z</time>
      </trkpt>
      <trkpt lat="43.1097" lon="2.40783">
        <ele>384</ele>
        <time>2022-09-08T16:31:49Z</time>
      </trkpt>
      <trkpt lat="43.1098" lon="2.40781">
        <ele>385</ele>
        <time>2022-09-08T16:31:54Z</time>
      </trkpt>
      <trkpt lat="43.10988" lon="2.40787">
        <ele>385</ele>
        <time>2022-09-08T16:31:59Z</time>
      </trkpt>
      <trkpt lat="43.10992" lon="2.40811">
        <ele>382</ele>
        <time>2022-09-08T16:32:08Z</time>
      </trkpt>
      <trkpt lat="43.10983" lon="2.40857">
        <ele>377</ele>
        <time>2022-09-08T16:32:25Z</time>
      </trkpt>
      <trkpt lat="43.10985" lon="2.40888">
        <ele>376</ele>
        <time>2022-09-08T16:32:37Z</time>
      </trkpt>
      <trkpt lat="43.10976" lon="2.40995">
        <ele>372</ele>
        <time>2022-09-08T16:33:16Z</time>
      </trkpt>
      <trkpt lat="43.10963" lon="2.41033">
        <ele>366</ele>
        <time>2022-09-08T16:33:31Z</time>
      </trkpt>
      <trkpt lat="43.1097" lon="2.41059">
        <ele>367</ele>
        <time>2022-09-08T16:33:42Z</time>
      </trkpt>
      <trkpt lat="43.10974" lon="2.41125">
        <ele>367</ele>
        <time>2022-09-08T16:34:06Z</time>
      </trkpt>
      <trkpt lat="43.10972" lon="2.41162">
        <ele>366</ele>
        <time>2022-09-08T16:34:19Z</time>
      </trkpt>
      <trkpt lat="43.10958" lon="2.41195">
        <ele>362</ele>
        <time>2022-09-08T16:34:33Z</time>
      </trkpt>
      <trkpt lat="43.10934" lon="2.41222">
        <ele>354</ele>
        <time>2022-09-08T16:34:49Z</time>
      </trkpt>
      <trkpt lat="43.10934" lon="2.41241">
        <ele>355</ele>
        <time>2022-09-08T16:34:56Z</time>
      </trkpt>
      <trkpt lat="43.10947" lon="2.41326">
        <ele>353</ele>
        <time>2022-09-08T16:35:27Z</time>
      </trkpt>
      <trkpt lat="43.10945" lon="2.41369">
        <ele>346</ele>
        <time>2022-09-08T16:35:43Z</time>
      </trkpt>
      <trkpt lat="43.10948" lon="2.41395">
        <ele>343</ele>
        <time>2022-09-08T16:35:53Z</time>
      </trkpt>
      <trkpt lat="43.10961" lon="2.41421">
        <ele>344</ele>
        <time>2022-09-08T16:36:04Z</time>
      </trkpt>
      <trkpt lat="43.10978" lon="2.41436">
        <ele>349</ele>
        <time>2022-09-08T16:36:14Z</time>
      </trkpt>
      <trkpt lat="43.10981" lon="2.41455">
        <ele>349</ele>
        <time>2022-09-08T16:36:22Z</time>
      </trkpt>
      <trkpt lat="43.10986" lon="2.41468">
        <ele>349</ele>
        <time>2022-09-08T16:36:27Z</time>
      </trkpt>
      <trkpt lat="43.10983" lon="2.41479">
        <ele>347</ele>
        <time>2022-09-08T16:36:31Z</time>
      </trkpt>
      <trkpt lat="43.10966" lon="2.41492">
        <ele>339</ele>
        <time>2022-09-08T16:36:41Z</time>
      </trkpt>
      <trkpt lat="43.10959" lon="2.41502">
        <ele>337</ele>
        <time>2022-09-08T16:36:46Z</time>
      </trkpt>
      <trkpt lat="43.10948" lon="2.4153">
        <ele>337</ele>
        <time>2022-09-08T16:36:58Z</time>
      </trkpt>
      <trkpt lat="43.10925" lon="2.41571">
        <ele>335</ele>
        <time>2022-09-08T16:37:16Z</time>
      </trkpt>
      <trkpt lat="43.10889" lon="2.41599">
        <ele>330</ele>
        <time>2022-09-08T16:37:37Z</time>
      </trkpt>
      <trkpt lat="43.10854" lon="2.4164">
        <ele>327</ele>
        <time>2022-09-08T16:38:00Z</time>
      </trkpt>
      <trkpt lat="43.10815" lon="2.41669">
        <ele>322</ele>
        <time>2022-09-08T16:38:22Z</time>
      </trkpt>
      <trkpt lat="43.10791" lon="2.417">
        <ele>323</ele>
        <time>2022-09-08T16:38:39Z</time>
      </trkpt>
      <trkpt lat="43.10789" lon="2.41782">
        <ele>327</ele>
        <time>2022-09-08T16:39:09Z</time>
      </trkpt>
      <trkpt lat="43.10752" lon="2.41937">
        <ele>319</ele>
        <time>2022-09-08T16:40:09Z</time>
      </trkpt>
    </trkseg>
  </trk>
</gpx>